Flight Track Log - Related Links

Times and Time Zones

All times are in EDT time to prevent confusion due to time zone crossing. See the N45N flight status page for this flight to view local times or setup timezone preferences in your user account.

Time Position Orientation Groundspeed Altitude Reporting Facility
EDT Latitude Longitude Course Direction KTS MPH feet Rate Location/Type
Thu 11:52:20 AM 37.4333 -122.0500 22° Northeast 128 147 800  Level Northern Cal TRACON
Thu 11:53:20 AM 37.4667 -122.0333 22° Northeast 141 162 2,200 1,333 Climbing Northern Cal TRACON
Thu 11:54:26 AM 37.5000 -122.0000 38° Northeast 146 168 3,600 1,238 Climbing Northern Cal TRACON
Thu 11:55:26 AM 37.5333 -121.9833 22° Northeast 146 168 4,800 700 Climbing Northern Cal TRACON
Thu 11:56:26 AM 37.5667 -121.9500 38° Northeast 158 182 5,000 579 Climbing Northern Cal TRACON
Thu 11:57:20 AM 37.6000 -121.9167 38° Northeast 158 182 5,900 950 Climbing Northern Cal TRACON
Thu 11:58:26 AM 37.6500 -121.8833 28° Northeast 161 185 6,900 524 Climbing Northern Cal TRACON
Thu 11:59:26 AM 37.6833 -121.8500 38° Northeast 171 197 7,000 250 Climbing Northern Cal TRACON
Thu 12:00:26 PM 37.7167 -121.8167 38° Northeast 170 196 7,400 700 Climbing Northern Cal TRACON
Thu 12:01:26 PM 37.7667 -121.7833 28° Northeast 167 192 8,400 950 Climbing Northern Cal TRACON
Thu 12:02:26 PM 37.8000 -121.7500 38° Northeast 172 198 9,300 850 Climbing Northern Cal TRACON
Thu 12:03:26 PM 37.8500 -121.7500 360° North 179 206 10,100 842 Climbing Northern Cal TRACON
Thu 12:04:20 PM 37.8833 -121.7500 360° North 178 205 10,900 843 Climbing Northern Cal TRACON
Thu 12:05:27 PM 37.9406 -121.7700 345° North 178 205 11,800 797 Climbing Oakland Center
Thu 12:06:28 PM 37.9894 -121.7781 353° North 177 204 12,600 780 Climbing Oakland Center
Thu 12:07:30 PM 38.0389 -121.7886 350° North 179 206 13,400 829 Climbing Oakland Center
Thu 12:08:31 PM 38.0875 -121.7992 350° North 179 206 14,300 829 Climbing Oakland Center
Thu 12:09:33 PM 38.1328 -121.8150 345° North 173 199 15,100 780 Climbing Oakland Center
Thu 12:10:34 PM 38.1817 -121.8200 355° North 175 201 15,900 439 Climbing Oakland Center
Thu 12:11:36 PM 38.2419 -121.8336 350° North 181 208 16,000 49 Climbing Oakland Center
Thu 12:12:37 PM 38.2928 -121.8450 350° North 186 214 16,000  Level Oakland Center
Thu 12:13:39 PM 38.3444 -121.8564 350° North 187 215 16,000  Level Oakland Center
Thu 12:14:40 PM 38.3964 -121.8669 351° North 189 217 16,000  Level Oakland Center
Thu 12:15:41 PM 38.4475 -121.8789 350° North 188 216 16,000  Level Oakland Center
Thu 12:16:43 PM 38.4986 -121.8911 349° North 188 216 16,000  Level Oakland Center
Thu 12:17:44 PM 38.5475 -121.9028 349° North 183 211 16,000  Level Oakland Center
Thu 12:18:46 PM 38.6039 -121.9158 350° North 174 200 16,000  Level Oakland Center
Thu 12:19:47 PM 38.6492 -121.9092 North 165 190 16,000  Level Oakland Center
Thu 12:20:49 PM 38.6906 -121.9019 North 161 185 16,000  Level Oakland Center
Thu 12:21:50 PM 38.7347 -121.8958 North 160 184 16,000  Level Oakland Center
Thu 12:22:51 PM 38.7797 -121.8897 North 161 185 16,000  Level Oakland Center
Thu 12:23:53 PM 38.8250 -121.8817 North 163 188 16,000  Level Oakland Center
Thu 12:24:54 PM 38.8700 -121.8722 North 163 188 16,000  Level Oakland Center
Thu 12:25:55 PM 38.9156 -121.8622 10° North 164 189 16,000  Level Oakland Center
Thu 12:26:57 PM 38.9694 -121.8503 10° North 162 186 16,000  Level Oakland Center
Thu 12:27:58 PM 39.0125 -121.8336 17° North 161 185 16,000 49 Level Oakland Center
Thu 12:29:00 PM 39.0522 -121.8117 23° Northeast 156 180 16,100  Climbing Oakland Center
Thu 12:30:01 PM 39.0978 -121.8056 North 160 184 16,000 -49 Descending Oakland Center
Thu 12:31:02 PM 39.1375 -121.7828 24° Northeast 158 182 16,000  Level Oakland Center
Thu 12:32:04 PM 39.1803 -121.7700 13° North 156 180 16,000  Level Oakland Center
Thu 12:33:05 PM 39.2242 -121.7547 15° North 161 185 16,000  Level Oakland Center
Thu 12:34:06 PM 39.2683 -121.7411 13° North 163 188 16,000  Level Oakland Center
Thu 12:35:08 PM 39.3125 -121.7269 14° North 162 186 16,000  Level Oakland Center
Thu 12:36:09 PM 39.3569 -121.7111 15° North 164 189 16,000  Level Oakland Center
Thu 12:37:10 PM 39.4117 -121.6914 16° North 167 192 16,000  Level Oakland Center
Thu 12:38:12 PM 39.4586 -121.6903 North 168 193 16,000  Level Oakland Center
Thu 12:39:13 PM 39.5058 -121.6886 North 171 197 16,000  Level Oakland Center
Thu 12:40:14 PM 39.5528 -121.6853 North 172 198 16,000  Level Oakland Center
Thu 12:41:16 PM 39.5992 -121.6803 North 169 194 16,000  Level Oakland Center
Thu 12:42:17 PM 39.6453 -121.6736 North 167 192 16,000  Level Oakland Center
Thu 12:43:18 PM 39.6908 -121.6608 12° North 167 192 16,000  Level Oakland Center
Thu 12:44:20 PM 39.7358 -121.6517 North 164 189 16,000  Level Oakland Center
Thu 12:45:21 PM 39.7797 -121.6403 11° North 165 190 16,000  Level Oakland Center
Thu 12:46:22 PM 39.8242 -121.6253 15° North 161 185 16,000  Level Oakland Center
Thu 12:47:24 PM 39.8775 -121.6133 10° North 161 185 16,000  Level Oakland Center
Thu 12:48:25 PM 39.9225 -121.6000 13° North 163 188 16,000  Level Oakland Center
Thu 12:49:26 PM 39.9667 -121.5892 11° North 161 185 16,000  Level Oakland Center
Thu 12:50:28 PM 40.0108 -121.5753 14° North 160 184 16,000  Level Oakland Center
Thu 12:51:29 PM 40.0539 -121.5653 10° North 157 181 16,000  Level Oakland Center
Thu 12:52:30 PM 40.0972 -121.5567 North 156 180 16,000  Level Oakland Center
Thu 12:53:32 PM 40.1408 -121.5431 13° North 157 181 16,000  Level Oakland Center
Thu 12:54:33 PM 40.1833 -121.5364 North 160 184 16,000  Level Oakland Center
Thu 12:55:34 PM 40.2303 -121.5308 North 158 182 16,000  Level Oakland Center
Thu 12:56:36 PM 40.2769 -121.5314 359° North 162 186 16,000  Level Oakland Center
Thu 12:57:37 PM 40.3225 -121.5333 358° North 163 188 16,000 295 Level Oakland Center
Thu 12:58:38 PM 40.3742 -121.5311 North 161 185 16,600 488 Climbing Oakland Center
Thu 12:59:40 PM 40.4144 -121.5300 North 163 188 17,000 390 Climbing Oakland Center
Thu 01:00:41 PM 40.4683 -121.5286 North 169 194 17,400 341 Climbing Oakland Center
Thu 01:01:43 PM 40.5156 -121.5269 North 169 194 17,700 341 Climbing Oakland Center
Thu 01:02:44 PM 40.5664 -121.5244 North 167 192 18,100 393 Climbing Oakland Center
Thu 01:03:45 PM 40.6136 -121.5233 North 169 194 18,500 341 Climbing Oakland Center
Thu 01:04:47 PM 40.6614 -121.5211 North 170 196 18,800 146 Climbing Oakland Center
Thu 01:05:48 PM 40.7097 -121.5189 North 173 199 18,800  Level Oakland Center
Thu 01:06:49 PM 40.7581 -121.5164 North 174 200 18,800  Level Oakland Center
Thu 01:07:51 PM 40.8008 -121.5211 355° North 159 183 18,800  Level Oakland Center
Thu 01:08:52 PM 40.8475 -121.5217 359° North 164 189 18,800  Level Oakland Center
Thu 01:09:54 PM 40.9042 -121.5158 North 165 190 18,800  Level Oakland Center
Thu 01:10:55 PM 40.9497 -121.5128 North 164 189 18,800  Level Oakland Center
Thu 01:11:56 PM 40.9503 -121.5525 271° West 199 229 18,800  Level Oakland Center
Thu 01:12:58 PM 40.9031 -121.5442 172° South 179 206 18,800  Level Oakland Center
Thu 01:13:59 PM 40.8514 -121.5464 182° South 180 207 18,800  Level Oakland Center
Thu 01:15:00 PM 40.7997 -121.5475 181° South 184 212 18,800  Level Oakland Center
Thu 01:16:02 PM 40.7475 -121.5497 182° South 186 214 18,800  Level Oakland Center
Thu 01:17:03 PM 40.6967 -121.5472 178° South 185 213 18,800  Level Oakland Center
Thu 01:18:05 PM 40.6542 -121.5211 155° Southeast 173 199 18,800  Level Oakland Center
Thu 01:19:06 PM 40.6628 -121.5778 281° West 191 220 18,800  Level Oakland Center
Thu 01:20:07 PM 40.7158 -121.5600 14° North 170 196 18,800  Level Oakland Center
Thu 01:21:09 PM 40.7647 -121.5569 North 172 198 18,800  Level Oakland Center
Thu 01:22:10 PM 40.8097 -121.5611 356° North 164 189 18,800  Level Oakland Center
Thu 01:23:11 PM 40.8586 -121.5583 North 171 197 18,800  Level Oakland Center
Thu 01:24:13 PM 40.9058 -121.5569 North 171 197 18,800 -98 Level Oakland Center
Thu 01:25:14 PM 40.9528 -121.5544 North 171 197 18,600 -341 Descending Oakland Center
Thu 01:26:16 PM 40.9975 -121.5242 27° Northeast 179 206 18,100 -390 Descending Oakland Center
Thu 01:27:17 PM 40.9919 -121.5722 261° West 191 220 17,800 -148 Descending Oakland Center
Thu 01:28:18 PM 40.9492 -121.5400 150° Southeast 183 211 17,800  Level Oakland Center
Thu 01:29:20 PM 40.8900 -121.5433 182° South 174 200 17,800  Level Oakland Center
Thu 01:30:21 PM 40.8381 -121.5456 182° South 178 205 17,800  Level Oakland Center
Thu 01:31:23 PM 40.7861 -121.5472 181° South 183 211 17,800  Level Oakland Center
Thu 01:32:24 PM 40.7344 -121.5483 181° South 184 212 17,800 49 Level Oakland Center
Thu 01:33:25 PM 40.6847 -121.5436 176° South 183 211 17,900  Climbing Oakland Center
Thu 01:34:27 PM 40.6469 -121.5439 180° South 174 200 17,800 -49 Descending Oakland Center
Thu 01:35:28 PM 40.6811 -121.5708 329° Northwest 177 204 17,800  Level Oakland Center
Thu 01:36:30 PM 40.7281 -121.5583 11° North 174 200 17,800  Level Oakland Center
Thu 01:37:31 PM 40.7764 -121.5583 360° North 173 199 17,800  Level Oakland Center
Thu 01:38:33 PM 40.8347 -121.5581 360° North 174 200 17,800  Level Oakland Center
Thu 01:39:34 PM 40.8831 -121.5575 360° North 174 200 17,800  Level Oakland Center
Thu 01:40:35 PM 40.9317 -121.5575 360° North 174 200 17,800 49 Level Oakland Center
Thu 01:41:37 PM 40.9433 -121.6103 286° West 191 220 17,900  Climbing Oakland Center
Thu 01:42:38 PM 40.8944 -121.6228 191° South 183 211 17,800 -49 Descending Oakland Center
Thu 01:43:39 PM 40.8431 -121.6250 182° South 184 212 17,800  Level Oakland Center
Thu 01:44:41 PM 40.7919 -121.6258 181° South 184 212 17,800  Level Oakland Center
Thu 01:45:42 PM 40.7400 -121.6272 181° South 185 213 17,800  Level Oakland Center
Thu 01:46:44 PM 40.6881 -121.6231 177° South 186 214 17,800  Level Oakland Center
Thu 01:47:45 PM 40.6536 -121.5822 138° Southeast 189 217 17,800  Level Oakland Center
Thu 01:48:47 PM 40.6783 -121.5231 61° Northeast 179 206 17,800  Level Oakland Center
Thu 01:49:48 PM 40.7267 -121.5147 North 177 204 17,800  Level Oakland Center
Thu 01:50:49 PM 40.7744 -121.5142 North 176 203 17,800  Level Oakland Center
Thu 01:51:51 PM 40.8225 -121.5144 360° North 174 200 17,800  Level Oakland Center
Thu 01:52:52 PM 40.8708 -121.5142 360° North 174 200 17,800  Level Oakland Center
Thu 01:53:54 PM 40.9194 -121.5136 360° North 173 199 17,800 -49 Level Oakland Center
Thu 01:54:55 PM 40.9678 -121.5119 North 173 199 17,700 -244 Descending Oakland Center
Thu 01:55:57 PM 41.0078 -121.4853 27° Northeast 182 209 17,300 -341 Descending Oakland Center
Thu 01:56:58 PM 40.9572 -121.4586 158° South 189 217 17,000 -195 Descending Oakland Center
Thu 01:58:00 PM 40.9067 -121.4500 173° South 187 215 16,900 -49 Descending Oakland Center
Thu 01:59:01 PM 40.8597 -121.4417 172° South 180 207 16,900 49 Level Oakland Center
Thu 02:00:03 PM 40.8108 -121.4408 179° South 175 201 17,000 49 Climbing Oakland Center
Thu 02:01:04 PM 40.7583 -121.4439 183° South 179 206 17,000  Level Oakland Center
Thu 02:02:06 PM 40.7067 -121.4433 180° South 183 211 17,000  Level Oakland Center
Thu 02:03:07 PM 40.6842 -121.5025 243° Southwest 204 235 17,000  Level Oakland Center
Thu 02:04:09 PM 40.7289 -121.5181 345° North 186 214 17,000  Level Oakland Center
Thu 02:05:10 PM 40.7792 -121.5153 North 181 208 17,000  Level Oakland Center
Thu 02:06:12 PM 40.8378 -121.5147 360° North 178 205 17,000  Level Oakland Center
Thu 02:07:13 PM 40.8867 -121.5139 North 176 203 17,000  Level Oakland Center
Thu 02:08:15 PM 40.9356 -121.5128 North 176 203 17,000  Level Oakland Center
Thu 02:09:16 PM 40.9839 -121.5211 353° North 175 201 17,000 -49 Level Oakland Center
Thu 02:10:18 PM 40.9489 -121.5494 211° Southwest 191 220 16,900 -49 Descending Oakland Center
Thu 02:11:19 PM 40.8989 -121.5414 173° South 183 211 16,900  Level Oakland Center
Thu 02:12:21 PM 40.8464 -121.5450 183° South 184 212 16,900  Level Oakland Center
Thu 02:13:22 PM 40.7933 -121.5458 181° South 188 216 16,900  Level Oakland Center
Thu 02:14:24 PM 40.7406 -121.5483 182° South 188 216 16,900 49 Level Oakland Center
Thu 02:15:25 PM 40.6814 -121.5381 172° South 184 212 17,000  Climbing Oakland Center
Thu 02:16:26 PM 40.6700 -121.5722 246° West 185 213 16,900 -49 Descending Oakland Center
Thu 02:17:28 PM 40.7164 -121.5592 12° North 175 201 16,900  Level Oakland Center
Thu 02:18:29 PM 40.7644 -121.5583 North 175 201 16,900  Level Oakland Center
Thu 02:19:31 PM 40.8139 -121.5572 North 176 203 16,900  Level Oakland Center
Thu 02:20:32 PM 40.8628 -121.5572 360° North 176 203 16,900  Level Oakland Center
Thu 02:21:33 PM 40.9125 -121.5567 360° North 177 204 16,900 49 Level Oakland Center
Thu 02:22:35 PM 40.9617 -121.5592 358° North 177 204 17,000 49 Climbing Oakland Center
Thu 02:23:36 PM 40.9864 -121.6086 304° West 186 214 17,000  Level Oakland Center
Thu 02:24:37 PM 40.9317 -121.6158 186° South 186 214 17,000  Level Oakland Center
Thu 02:25:39 PM 40.8861 -121.5856 153° Southeast 184 212 17,000  Level Oakland Center
Thu 02:26:40 PM 40.8400 -121.5556 154° Southeast 184 212 17,000 148 Level Oakland Center
Thu 02:27:41 PM 40.7975 -121.5644 189° South 191 220 17,300 390 Climbing Oakland Center
Thu 02:28:43 PM 40.7694 -121.6189 236° Southwest 185 213 17,800 293 Climbing Oakland Center
Thu 02:29:44 PM 40.7411 -121.6767 237° Southwest 184 212 17,900 49 Climbing Oakland Center
Thu 02:30:45 PM 40.7108 -121.7444 240° Southwest 196 226 17,900  Level Oakland Center
Thu 02:31:47 PM 40.6844 -121.8153 244° Southwest 207 238 17,900 -49 Level Oakland Center
Thu 02:32:48 PM 40.6600 -121.8836 245° Southwest 208 239 17,800 -49 Descending Oakland Center
Thu 02:33:50 PM 40.6364 -121.9431 242° Southwest 196 226 17,800  Level Oakland Center
Thu 02:34:51 PM 40.6111 -122.0142 245° Southwest 183 211 17,800  Level Oakland Center
Thu 02:35:52 PM 40.5900 -122.0722 244° Southwest 179 206 17,800 49 Level Oakland Center
Thu 02:36:54 PM 40.5689 -122.1306 245° Southwest 177 204 17,900 49 Climbing Oakland Center
Thu 02:37:55 PM 40.5636 -122.1956 264° West 184 212 17,900  Level Oakland Center
Thu 02:38:56 PM 40.5628 -122.2592 269° West 176 203 17,900  Level Oakland Center
Thu 02:39:58 PM 40.5633 -122.3247 271° West 177 204 17,900  Level Oakland Center
Thu 02:40:59 PM 40.5636 -122.3889 270° West 177 204 17,900  Level Oakland Center
Thu 02:42:00 PM 40.5631 -122.4544 269° West 178 205 17,900  Level Oakland Center
Thu 02:43:02 PM 40.5644 -122.5347 271° West 182 209 17,900  Level Oakland Center
Thu 02:44:03 PM 40.5617 -122.6047 267° West 183 211 17,900  Level Oakland Center
Thu 02:45:04 PM 40.5617 -122.6694 270° West 179 206 17,900  Level Oakland Center
Thu 02:46:06 PM 40.5597 -122.7347 268° West 179 206 17,900  Level Oakland Center
Thu 02:47:07 PM 40.5628 -122.8008 274° West 179 206 17,900  Level Oakland Center
Thu 02:48:08 PM 40.5619 -122.8650 269° West 179 206 17,900  Level Oakland Center
Thu 02:49:10 PM 40.5614 -122.9308 269° West 179 206 17,900  Level Oakland Center
Thu 02:50:11 PM 40.5603 -122.9975 269° West 181 208 17,900  Level Oakland Center
Thu 02:51:13 PM 40.5589 -123.0639 268° West 182 209 17,900  Level Oakland Center
Thu 02:52:14 PM 40.5456 -123.1225 253° West 211 243 17,900 -49 Level Oakland Center
Thu 02:53:15 PM 40.5050 -123.0869 146° Southeast 171 197 17,800  Descending Oakland Center
Thu 02:54:16 PM 40.4925 -123.0308 106° East 161 185 17,900 49 Climbing Oakland Center
Thu 02:55:18 PM 40.4906 -122.9714 92° East 161 185 17,900  Level Oakland Center
Thu 02:56:19 PM 40.4936 -122.9114 86° East 164 189 17,900  Level Oakland Center
Thu 02:57:20 PM 40.4992 -122.8506 83° East 166 191 17,900 -49 Level Oakland Center
Thu 02:58:22 PM 40.4986 -122.7892 91° East 167 192 17,800 -49 Descending Oakland Center
Thu 02:59:23 PM 40.5044 -122.7286 83° East 169 194 17,800  Level Oakland Center
Thu 03:00:25 PM 40.5475 -122.7183 10° North 168 193 17,800 49 Level Oakland Center
Thu 03:01:26 PM 40.5628 -122.7800 288° West 178 205 17,900  Climbing Oakland Center
Thu 03:02:27 PM 40.5617 -122.8586 269° West 177 204 17,800 -49 Descending Oakland Center
Thu 03:03:29 PM 40.5617 -122.9233 270° West 179 206 17,800  Level Oakland Center
Thu 03:04:30 PM 40.5622 -122.9886 271° West 179 206 17,800  Level Oakland Center
Thu 03:05:31 PM 40.5611 -123.0553 269° West 182 209 17,800  Level Oakland Center
Thu 03:06:33 PM 40.5606 -123.1225 269° West 185 213 17,800 -146 Level Oakland Center
Thu 03:07:34 PM 40.5200 -123.1531 210° Southwest 193 222 17,500 -390 Descending Oakland Center
Thu 03:08:36 PM 40.4633 -123.1583 184° South 198 228 17,000 -244 Descending Oakland Center
Thu 03:09:37 PM 40.4100 -123.1628 184° South 196 226 17,000  Level Oakland Center
Thu 03:10:39 PM 40.3583 -123.1631 180° South 190 219 17,000  Level Oakland Center
Thu 03:11:40 PM 40.2972 -123.1625 180° South 184 212 17,000  Level Oakland Center
Thu 03:12:41 PM 40.2472 -123.1619 180° South 181 208 17,000  Level Oakland Center
Thu 03:13:43 PM 40.1969 -123.1619 180° South 181 208 17,000  Level Oakland Center
Thu 03:14:44 PM 40.1472 -123.1617 180° South 180 207 17,000  Level Oakland Center
Thu 03:15:46 PM 40.0961 -123.1603 179° South 182 209 17,000  Level Oakland Center
Thu 03:16:47 PM 40.0453 -123.1617 181° South 182 209 17,000  Level Oakland Center
Thu 03:17:49 PM 39.9956 -123.1625 181° South 180 207 17,000  Level Oakland Center
Thu 03:18:50 PM 39.9456 -123.1633 181° South 180 207 17,000  Level Oakland Center
Thu 03:19:52 PM 39.8947 -123.1644 181° South 182 209 17,000  Level Oakland Center
Thu 03:20:53 PM 39.8339 -123.1653 181° South 182 209 17,000  Level Oakland Center
Thu 03:21:55 PM 39.7828 -123.1667 181° South 183 211 17,000 49 Level Oakland Center
Thu 03:22:56 PM 39.7308 -123.1636 177° South 186 214 17,100 49 Climbing Oakland Center
Thu 03:23:58 PM 39.6819 -123.1525 170° South 182 209 17,100  Level Oakland Center
Thu 03:24:59 PM 39.6319 -123.1408 170° South 183 211 17,100  Level Oakland Center
Thu 03:26:01 PM 39.5833 -123.1278 168° South 182 209 17,100  Level Oakland Center
Thu 03:27:02 PM 39.5339 -123.1147 168° South 183 211 17,100  Level Oakland Center
Thu 03:28:04 PM 39.4847 -123.1025 169° South 182 209 17,100  Level Oakland Center
Thu 03:29:06 PM 39.4328 -123.0911 170° South 181 208 17,100  Level Oakland Center
Thu 03:30:07 PM 39.3833 -123.0794 170° South 180 207 17,100  Level Oakland Center
Thu 03:31:09 PM 39.3233 -123.0672 171° South 182 209 17,100  Level Oakland Center
Thu 03:32:10 PM 39.2736 -123.0547 169° South 182 209 17,100  Level Oakland Center
Thu 03:33:12 PM 39.2228 -123.0425 169° South 185 213 17,100  Level Oakland Center
Thu 03:34:13 PM 39.1728 -123.0306 170° South 183 211 17,100  Level Oakland Center
Thu 03:35:15 PM 39.1219 -123.0181 169° South 185 213 17,100  Level Oakland Center
Thu 03:36:16 PM 39.0722 -123.0072 170° South 182 209 17,100  Level Oakland Center
Thu 03:37:18 PM 39.0225 -122.9944 169° South 183 211 17,100  Level Oakland Center
Thu 03:38:19 PM 38.9711 -122.9833 170° South 186 214 17,100  Level Oakland Center
Thu 03:39:21 PM 38.9111 -122.9692 170° South 183 211 17,100  Level Oakland Center
Thu 03:40:22 PM 38.8600 -122.9581 170° South 185 213 17,100  Level Oakland Center
Thu 03:41:24 PM 38.8100 -122.9467 170° South 185 213 17,100  Level Oakland Center
Thu 03:42:25 PM 38.7597 -122.9356 170° South 184 212 17,100  Level Oakland Center
Thu 03:43:27 PM 38.7092 -122.9247 171° South 185 213 17,100  Level Oakland Center
Thu 03:44:29 PM 38.6583 -122.9144 171° South 185 213 17,100 -244 Level Oakland Center
Thu 03:45:30 PM 38.6069 -122.9072 174° South 188 216 16,600 -585 Descending Oakland Center
Thu 03:46:32 PM 38.5525 -122.9067 180° South 195 224 15,900 -829 Descending Oakland Center
Thu 03:47:33 PM 38.4892 -122.9086 181° South 190 219 14,900 -1,122 Descending Oakland Center
Thu 03:48:35 PM 38.4389 -122.9106 182° South 183 211 13,600 -1,220 Descending Oakland Center
Thu 03:49:36 PM 38.3875 -122.9125 182° South 183 211 12,400 -1,171 Descending Oakland Center
Thu 03:50:38 PM 38.3375 -122.9108 179° South 181 208 11,200 -1,161 Descending Oakland Center
Thu 03:51:40 PM 38.2886 -122.9097 179° South 180 207 10,000 -1,073 Descending Oakland Center
Thu 03:52:41 PM 38.2392 -122.9094 180° South 179 206 9,000 -488 Descending Oakland Center
Thu 03:53:43 PM 38.1917 -122.9075 178° South 175 201 9,000  Level Oakland Center
Thu 03:54:44 PM 38.1364 -122.8975 172° South 171 197 9,000  Level Oakland Center
Thu 03:55:46 PM 38.0917 -122.8856 168° South 167 192 9,000  Level Oakland Center
Thu 03:56:47 PM 38.0508 -122.8614 155° Southeast 164 189 9,000  Level Oakland Center
Thu 03:57:49 PM 38.0078 -122.8381 157° South 167 192 9,000  Level Oakland Center
Thu 03:58:52 PM 37.9653 -122.8158 158° South 166 191 9,000  Level Oakland Center
Thu 03:59:52 PM 37.9233 -122.7922 156° South 167 192 9,000 -148 Level Oakland Center
Thu 04:00:54 PM 37.8856 -122.7442 135° Southeast 163 188 8,700 -341 Descending Oakland Center
Thu 04:01:55 PM 37.8536 -122.6975 131° Southeast 175 201 8,300 -390 Descending Oakland Center
Thu 04:02:57 PM 37.8247 -122.6514 128° Southeast 171 197 7,900 -381 Descending Oakland Center
Thu 04:04:01 PM 37.7833 -122.6167 146° Southeast 170 196 7,500 -339 Descending Northern Cal TRACON
Thu 04:05:01 PM 37.7500 -122.5833 142° Southeast 164 189 7,200 -414 Descending Northern Cal TRACON
Thu 04:05:57 PM 37.7167 -122.5500 142° Southeast 167 192 6,700 -626 Descending Northern Cal TRACON
Thu 04:06:56 PM 37.6667 -122.5167 152° Southeast 172 198 6,000 -743 Descending Northern Cal TRACON
Thu 04:07:50 PM 37.6333 -122.4833 142° Southeast 172 198 5,300 -474 Descending Northern Cal TRACON
Thu 04:08:50 PM 37.6000 -122.4500 142° Southeast 166 191 5,100 -158 Descending Northern Cal TRACON
Thu 04:09:06 PM 37.5897 -122.4394 141° Southeast 167 192 5,100  Level Oakland Center
Thu 04:10:07 PM 37.5503 -122.4103 150° Southeast 164 189 5,100  Level Oakland Center
Thu 04:11:09 PM 37.5111 -122.3819 150° Southeast 164 189 5,100  Level Oakland Center
Thu 04:12:10 PM 37.4719 -122.3525 149° Southeast 164 189 5,100  Level Oakland Center
Thu 04:13:12 PM 37.4333 -122.3208 147° Southeast 165 190 5,100 -49 Level Oakland Center
Thu 04:14:13 PM 37.3983 -122.2831 139° Southeast 166 191 5,000 -49 Descending Oakland Center
Thu 04:15:15 PM 37.3672 -122.2278 125° Southeast 163 188 5,000  Level Oakland Center
Thu 04:16:16 PM 37.3394 -122.1822 127° Southeast 164 189 5,000 -197 Level Oakland Center
Thu 04:17:17 PM 37.3219 -122.1308 113° Southeast 162 186 4,600 -732 Descending Oakland Center
Thu 04:18:19 PM 37.3208 -122.0750 91° East 163 188 3,500 -1,366 Descending Oakland Center
Thu 04:19:20 PM 37.3328 -122.0231 74° East 161 185 1,800 -1,268 Descending Oakland Center
Thu 04:20:22 PM 37.3675 -122.0183 North 144 166 900 -867 Descending Oakland Center
Thu 04:20:50 PM 37.3833 -122.0333 323° Northwest 120 138 500 -857 Descending Northern Cal TRACON
Thu 04:23:00 PM 37.4000 -122.0333 North  Level FlightAware Approximate

Login

Don't have an account? Register now (free) for customized features, flight alerts, and more!